Time;durP1;ratioP1;P1;durP2;ratioP2;P2;SDS_P1;SDS_P2;PMS_P1;PMS_P2;Temp;Humidity;BMP_temperature;BMP_pressure;BME280_temperature;BME280_humidity;BME280_pressure;Samples;Min_cycle;Max_cycle;Signal;HPM_P1;HPM_P2
2024/02/25 00:00:09;;;;;;;4.63;2.20;;;5.10;99.90;;;;;;5022886;28;20047;-81
2024/02/25 00:02:38;;;;;;;4.55;2.10;;;5.20;99.90;;;;;;5040086;28;20017;-81
2024/02/25 00:05:06;;;;;;;2.92;1.65;;;5.20;99.90;;;;;;5018760;28;20115;-82
2024/02/25 00:07:32;;;;;;;4.40;1.73;;;5.30;99.90;;;;;;5016101;28;20058;-83
2024/02/25 00:09:58;;;;;;;4.80;1.75;;;4.90;99.90;;;;;;5019304;28;20053;-81
2024/02/25 00:12:24;;;;;;;5.00;1.83;;;7.50;99.90;;;;;;5018179;28;20082;-81
2024/02/25 00:14:50;;;;;;;3.60;1.73;;;6.90;99.90;;;;;;5047037;28;20103;-81
2024/02/25 00:17:19;;;;;;;8.25;2.22;;;5.30;99.90;;;;;;5026440;28;20025;-85
2024/02/25 00:19:45;;;;;;;4.13;2.00;;;5.30;99.90;;;;;;5034520;28;20110;-85
2024/02/25 00:22:12;;;;;;;4.60;1.95;;;5.30;99.90;;;;;;5032200;28;20066;-81
2024/02/25 00:24:38;;;;;;;3.60;1.67;;;5.30;99.90;;;;;;5021430;28;20014;-86
2024/02/25 00:27:04;;;;;;;3.28;1.60;;;5.40;99.90;;;;;;5021937;28;20030;-82
2024/02/25 00:29:31;;;;;;;3.72;1.88;;;5.30;99.90;;;;;;5015405;28;20036;-84
2024/02/25 00:31:57;;;;;;;4.72;1.95;;;5.30;99.90;;;;;;5017465;28;20548;-83
2024/02/25 00:34:22;;;;;;;4.50;1.92;;;5.30;99.90;;;;;;5026487;28;20038;-82
2024/02/25 00:36:48;;;;;;;3.13;1.92;;;5.30;99.90;;;;;;5044764;28;20037;-83
2024/02/25 00:39:18;;;;;;;5.07;1.58;;;5.40;99.90;;;;;;5023463;28;20486;-81
2024/02/25 00:41:45;;;;;;;4.53;1.92;;;5.30;99.90;;;;;;5022374;28;20037;-86
2024/02/25 00:44:11;;;;;;;4.97;1.85;;;5.40;99.90;;;;;;5018900;28;20025;-83
2024/02/25 00:46:37;;;;;;;4.53;1.75;;;5.40;99.90;;;;;;5019758;28;20025;-83
2024/02/25 00:49:03;;;;;;;2.90;1.55;;;5.40;99.90;;;;;;5022313;28;20091;-85
2024/02/25 00:51:29;;;;;;;4.03;1.60;;;5.40;99.90;;;;;;5033093;28;20051;-84
2024/02/25 00:53:55;;;;;;;4.55;1.70;;;5.40;99.90;;;;;;5024543;28;20052;-82
2024/02/25 00:56:20;;;;;;;2.85;1.50;;;5.50;99.90;;;;;;5021084;28;20048;-81
2024/02/25 00:58:47;;;;;;;4.25;1.60;;;5.50;99.90;;;;;;5027878;28;20032;-82
2024/02/25 01:01:16;;;;;;;4.88;1.65;;;5.90;99.90;;;;;;5022582;28;20051;-82
2024/02/25 01:03:46;;;;;;;4.10;1.60;;;5.60;99.90;;;;;;5030492;22;20030;-83
2024/02/25 01:06:17;;;;;;;3.17;1.50;;;5.60;99.90;;;;;;5006460;28;20028;-81
2024/02/25 01:08:45;;;;;;;2.10;1.15;;;5.60;99.90;;;;;;5002735;28;20040;-80
2024/02/25 01:11:16;;;;;;;2.63;1.38;;;5.70;99.90;;;;;;4992216;28;20038;-79
2024/02/25 01:13:47;;;;;;;3.65;1.40;;;5.70;99.90;;;;;;4994987;28;20038;-81
2024/02/25 01:16:15;;;;;;;2.65;1.48;;;5.70;99.90;;;;;;4995213;28;20102;-83
2024/02/25 01:18:51;;;;;;;5.30;1.70;;;7.50;99.90;;;;;;4978666;28;20053;-81
2024/02/25 01:21:23;;;;;;;2.90;1.60;;;5.70;99.90;;;;;;4995979;28;20610;-84
2024/02/25 01:23:54;;;;;;;4.30;1.85;;;5.70;99.90;;;;;;4992169;28;20540;-86
2024/02/25 01:26:20;;;;;;;3.73;1.60;;;6.50;99.90;;;;;;5001057;28;20025;-85
2024/02/25 01:28:46;;;;;;;4.35;1.60;;;4.70;99.90;;;;;;5002250;28;20029;-82
2024/02/25 01:31:12;;;;;;;5.35;1.50;;;5.80;99.90;;;;;;5007551;28;20045;-85
2024/02/25 01:33:38;;;;;;;2.50;1.60;;;6.30;99.90;;;;;;5007714;28;20487;-85
2024/02/25 01:36:04;;;;;;;3.33;1.33;;;5.80;99.90;;;;;;4998758;28;20053;-86
2024/02/25 01:38:32;;;;;;;3.53;1.45;;;5.80;99.90;;;;;;5001824;28;20026;-82
2024/02/25 01:40:58;;;;;;;4.35;2.10;;;5.80;99.90;;;;;;5000167;28;20029;-86
2024/02/25 01:43:24;;;;;;;3.72;1.45;;;5.80;99.90;;;;;;5007110;28;20026;-85
2024/02/25 01:45:51;;;;;;;2.65;1.33;;;5.90;99.90;;;;;;5007638;28;20048;-82
2024/02/25 01:48:22;;;;;;;3.17;1.40;;;5.90;99.90;;;;;;5019894;28;20082;-79
2024/02/25 01:50:50;;;;;;;4.03;1.73;;;5.90;99.90;;;;;;5000340;28;20058;-86
2024/02/25 01:53:17;;;;;;;2.70;1.30;;;5.90;99.90;;;;;;5002210;28;20073;-81
2024/02/25 01:55:49;;;;;;;3.67;1.35;;;5.90;99.90;;;;;;5002438;28;20026;-82
2024/02/25 01:58:18;;;;;;;3.65;1.27;;;5.90;99.90;;;;;;4987943;28;20069;-81
2024/02/25 02:00:45;;;;;;;2.88;1.38;;;6.50;99.90;;;;;;5014412;28;20030;-88
2024/02/25 02:03:15;;;;;;;2.95;1.30;;;5.90;99.90;;;;;;5006877;28;20025;-83
2024/02/25 02:05:41;;;;;;;3.15;1.38;;;5.90;99.90;;;;;;5003808;28;22492;-84
2024/02/25 02:08:07;;;;;;;2.97;1.50;;;5.90;99.90;;;;;;5006026;28;20262;-82
2024/02/25 02:10:33;;;;;;;5.72;2.10;;;6.40;99.90;;;;;;5010162;28;20102;-82
2024/02/25 02:13:04;;;;;;;3.97;1.65;;;5.80;99.90;;;;;;5007866;28;20034;-85
2024/02/25 02:15:30;;;;;;;;;;;5.70;99.90;;;;;;5000716;28;20025;-88
2024/02/25 02:17:57;;;;;;;4.35;1.92;;;5.70;99.90;;;;;;5013782;28;20496;-85
2024/02/25 02:20:23;;;;;;;2.97;1.40;;;5.70;99.90;;;;;;5007286;28;20018;-83
2024/02/25 02:22:51;;;;;;;3.72;1.75;;;6.10;99.90;;;;;;5007355;28;20029;-83
2024/02/25 02:25:17;;;;;;;4.72;1.65;;;5.70;99.90;;;;;;5023926;28;20513;-81
2024/02/25 02:27:44;;;;;;;3.92;1.60;;;5.80;99.90;;;;;;5005518;28;20029;-86
2024/02/25 02:30:12;;;;;;;4.57;1.42;;;6.70;99.90;;;;;;5028730;28;20029;-83
2024/02/25 02:32:38;;;;;;;3.10;1.50;;;5.80;99.90;;;;;;5006030;28;20022;-87
2024/02/25 02:35:05;;;;;;;3.35;1.77;;;5.80;99.90;;;;;;5022139;28;20030;-85
2024/02/25 02:37:32;;;;;;;3.17;1.48;;;5.80;99.90;;;;;;5016712;28;20685;-86
2024/02/25 02:39:58;;;;;;;4.47;1.30;;;5.80;99.90;;;;;;5001469;28;20081;-85
2024/02/25 02:42:25;;;;;;;3.45;1.50;;;5.80;99.90;;;;;;4995334;28;20398;-83
2024/02/25 02:44:51;;;;;;;3.15;1.63;;;5.70;99.90;;;;;;5020403;28;20029;-81
2024/02/25 02:47:20;;;;;;;4.38;1.63;;;5.80;99.90;;;;;;5009108;28;20121;-84
2024/02/25 02:49:47;;;;;;;2.22;1.20;;;5.80;99.90;;;;;;5007470;28;20034;-83
2024/02/25 02:52:13;;;;;;;1.65;1.05;;;5.80;99.90;;;;;;5024012;28;20033;-83
2024/02/25 02:54:40;;;;;;;2.40;1.10;;;5.70;99.90;;;;;;5018193;28;20037;-81
2024/02/25 02:57:06;;;;;;;4.82;1.73;;;5.70;99.90;;;;;;5019204;28;20124;-83
2024/02/25 02:59:33;;;;;;;3.45;1.10;;;7.40;99.90;;;;;;5009436;28;20259;-81
2024/02/25 03:01:58;;;;;;;2.72;1.25;;;5.60;99.90;;;;;;5014430;28;20396;-82
2024/02/25 03:04:27;;;;;;;3.30;1.20;;;5.60;99.90;;;;;;5011481;28;20057;-82
2024/02/25 03:06:54;;;;;;;3.53;1.20;;;5.50;99.90;;;;;;5007402;28;20081;-82
2024/02/25 03:09:23;;;;;;;2.70;1.50;;;5.60;99.90;;;;;;5019404;28;20148;-85
2024/02/25 03:11:50;;;;;;;3.25;1.20;;;5.50;99.90;;;;;;5040923;28;20117;-80
2024/02/25 03:14:17;;;;;;;3.30;1.85;;;7.50;99.90;;;;;;5004334;28;20029;-82
2024/02/25 03:16:43;;;;;;;1.83;1.05;;;7.90;99.90;;;;;;5016706;28;20477;-86
2024/02/25 03:19:09;;;;;;;4.88;1.20;;;5.40;99.90;;;;;;5005747;28;20033;-81
2024/02/25 03:21:42;;;;;;;5.10;1.25;;;5.40;99.90;;;;;;5021253;28;20393;-85
2024/02/25 03:24:08;;;;;;;2.15;1.20;;;5.40;99.90;;;;;;5020687;28;20492;-82
2024/02/25 03:26:35;;;;;;;2.83;1.38;;;5.40;99.90;;;;;;5004837;28;20096;-83
2024/02/25 03:29:01;;;;;;;2.67;1.13;;;5.40;99.90;;;;;;5000468;28;20030;-85
2024/02/25 03:31:26;;;;;;;2.30;1.05;;;5.40;99.90;;;;;;5014414;28;20027;-83
2024/02/25 03:33:52;;;;;;;2.92;1.15;;;7.50;99.90;;;;;;5026146;28;20026;-85
2024/02/25 03:36:19;;;;;;;2.95;1.33;;;8.00;99.90;;;;;;5005152;28;20072;-81
2024/02/25 03:38:45;;;;;;;2.67;1.20;;;5.40;99.90;;;;;;5012094;28;20021;-84
2024/02/25 03:41:10;;;;;;;3.00;1.10;;;5.40;99.90;;;;;;5021792;28;20098;-81
2024/02/25 03:43:36;;;;;;;3.00;1.00;;;5.40;99.90;;;;;;5004008;28;20029;-82
2024/02/25 03:46:02;;;;;;;3.00;1.17;;;5.40;99.90;;;;;;5000619;28;20076;-81
2024/02/25 03:48:28;;;;;;;2.90;1.52;;;5.40;99.90;;;;;;5011229;28;20034;-81
2024/02/25 03:50:54;;;;;;;3.65;1.27;;;5.60;99.90;;;;;;5001661;28;20088;-83
2024/02/25 03:53:20;;;;;;;3.03;1.10;;;;;;;;;;5003839;28;20032;-84
2024/02/25 03:55:46;;;;;;;2.38;1.10;;;5.40;99.90;;;;;;5001251;28;20030;-83
2024/02/25 03:58:12;;;;;;;2.55;1.23;;;5.40;99.90;;;;;;5008000;28;20048;-83
2024/02/25 04:00:38;;;;;;;4.15;1.30;;;5.40;99.90;;;;;;5001434;28;20021;-85
2024/02/25 04:03:04;;;;;;;2.45;1.27;;;5.50;99.90;;;;;;5000517;28;20026;-81
2024/02/25 04:05:29;;;;;;;2.10;1.20;;;5.50;99.90;;;;;;5005337;28;20025;-83
2024/02/25 04:07:55;;;;;;;3.55;1.48;;;7.50;99.90;;;;;;4998960;28;20033;-83
2024/02/25 04:10:23;;;;;;;1.60;0.93;;;;;;;;;;4996571;28;20029;-83
2024/02/25 04:12:49;;;;;;;1.98;1.10;;;;;;;;;;5017028;28;20018;-86
2024/02/25 04:15:15;;;;;;;3.92;1.10;;;5.60;99.90;;;;;;5018708;28;20040;-85
2024/02/25 04:17:41;;;;;;;2.60;1.05;;;5.60;99.90;;;;;;5011528;28;20018;-82
2024/02/25 04:20:07;;;;;;;2.38;0.93;;;7.50;99.90;;;;;;5006287;28;20328;-82
2024/02/25 04:22:34;;;;;;;1.85;1.00;;;5.60;99.90;;;;;;5000662;28;20037;-85
2024/02/25 04:25:00;;;;;;;2.28;1.02;;;5.70;99.90;;;;;;4993909;28;20022;-85
2024/02/25 04:27:26;;;;;;;3.63;1.60;;;5.70;99.90;;;;;;4990416;28;20026;-86
2024/02/25 04:29:53;;;;;;;1.52;0.90;;;5.70;99.90;;;;;;5003060;28;20052;-87
2024/02/25 04:32:19;;;;;;;2.90;1.50;;;5.70;99.90;;;;;;4992856;28;20421;-85
2024/02/25 04:34:45;;;;;;;2.45;1.17;;;5.70;99.90;;;;;;4997719;28;20037;-86
2024/02/25 04:37:11;;;;;;;1.75;1.13;;;5.70;99.90;;;;;;5006473;28;20033;-87
2024/02/25 04:39:38;;;;;;;1.50;0.93;;;5.70;99.90;;;;;;4999646;28;20030;-86
2024/02/25 04:42:16;;;;;;;1.27;0.90;;;5.70;99.90;;;;;;5033314;28;20036;-84
2024/02/25 04:44:42;;;;;;;3.60;1.35;;;5.70;99.90;;;;;;5028666;28;20061;-84
2024/02/25 04:47:08;;;;;;;2.53;1.02;;;5.70;99.90;;;;;;5005904;28;20459;-84
2024/02/25 04:49:34;;;;;;;2.00;1.00;;;;;;;;;;5001604;28;20057;-83
2024/02/25 04:52:00;;;;;;;2.30;1.00;;;5.70;99.90;;;;;;5002042;28;20032;-84
2024/02/25 04:54:26;;;;;;;2.63;1.30;;;5.70;99.90;;;;;;5000812;28;20117;-79
2024/02/25 04:56:54;;;;;;;1.83;0.90;;;5.70;99.90;;;;;;5000374;28;20038;-83
2024/02/25 04:59:19;;;;;;;2.10;1.00;;;5.70;99.90;;;;;;5001667;28;20037;-83
2024/02/25 05:01:47;;;;;;;2.20;1.10;;;5.80;99.90;;;;;;5004122;28;20038;-86
2024/02/25 05:04:13;;;;;;;2.50;1.00;;;5.70;99.90;;;;;;5006965;28;20041;-83
2024/02/25 05:06:40;;;;;;;4.82;1.92;;;5.70;99.90;;;;;;4999129;28;20078;-85
2024/02/25 05:09:07;;;;;;;0.93;0.80;;;5.70;99.90;;;;;;5000172;28;20026;-86
2024/02/25 05:11:39;;;;;;;2.15;1.10;;;6.30;99.90;;;;;;5000358;28;20030;-81
2024/02/25 05:14:06;;;;;;;2.17;1.08;;;5.70;99.90;;;;;;5015170;28;20029;-84
2024/02/25 05:16:32;;;;;;;1.83;1.08;;;5.70;99.90;;;;;;5002552;28;20060;-86
2024/02/25 05:18:58;;;;;;;3.42;1.10;;;;;;;;;;5004189;28;20477;-82
2024/02/25 05:21:24;;;;;;;1.60;1.02;;;5.70;99.90;;;;;;5016035;28;20041;-83
2024/02/25 05:23:50;;;;;;;4.43;1.02;;;;;;;;;;5033581;28;20021;-85
2024/02/25 05:26:15;;;;;;;2.35;1.05;;;5.70;99.90;;;;;;5006858;28;20048;-86
2024/02/25 05:28:41;;;;;;;3.33;1.17;;;5.70;99.90;;;;;;4999731;28;20034;-85
2024/02/25 05:31:06;;;;;;;1.75;0.88;;;5.70;99.90;;;;;;4998935;28;20034;-85
2024/02/25 05:33:32;;;;;;;1.80;1.00;;;5.70;99.90;;;;;;5002166;28;20098;-85
2024/02/25 05:35:58;;;;;;;2.00;1.13;;;5.70;99.90;;;;;;5007732;28;20040;-86
2024/02/25 05:38:23;;;;;;;2.30;1.10;;;5.70;99.90;;;;;;5006845;28;20042;-84
2024/02/25 05:40:49;;;;;;;3.58;1.00;;;5.70;99.90;;;;;;5015850;28;20025;-83
2024/02/25 05:43:15;;;;;;;3.25;1.15;;;7.30;99.90;;;;;;5014596;28;20052;-87
2024/02/25 05:45:41;;;;;;;1.83;1.15;;;5.70;99.90;;;;;;5001926;28;20118;-85
2024/02/25 05:48:07;;;;;;;2.97;0.95;;;5.70;99.90;;;;;;5005927;28;20037;-85
2024/02/25 05:50:33;;;;;;;3.08;0.95;;;5.70;99.90;;;;;;4998120;28;20125;-84
2024/02/25 05:52:58;;;;;;;2.95;1.00;;;6.60;99.90;;;;;;5006946;28;20034;-83
2024/02/25 05:55:24;;;;;;;2.70;1.20;;;5.70;99.90;;;;;;4999489;28;20034;-83
2024/02/25 05:57:50;;;;;;;3.13;1.20;;;5.70;99.90;;;;;;5001633;28;20516;-81
2024/02/25 06:00:16;;;;;;;2.47;1.17;;;5.70;99.90;;;;;;4997011;28;20108;-82
2024/02/25 06:02:46;;;;;;;2.10;1.23;;;;;;;;;;5024724;28;20033;-84
2024/02/25 06:05:15;;;;;;;2.70;1.40;;;5.60;99.90;;;;;;5028544;28;20034;-85
2024/02/25 06:07:42;;;;;;;1.98;1.00;;;7.10;99.90;;;;;;4997276;28;20030;-81
2024/02/25 06:10:08;;;;;;;3.63;1.10;;;6.50;99.90;;;;;;5017564;28;20112;-84
2024/02/25 06:12:35;;;;;;;2.08;0.95;;;5.70;99.90;;;;;;5011069;28;20026;-81
2024/02/25 06:15:03;;;;;;;2.63;1.30;;;7.70;99.90;;;;;;5001251;28;20038;-82
2024/02/25 06:17:29;;;;;;;2.00;1.00;;;;;;;;;;5000105;28;20030;-85
2024/02/25 06:19:56;;;;;;;2.38;1.08;;;;;;;;;;4996692;28;20507;-82
2024/02/25 06:22:22;;;;;;;2.45;1.25;;;;;;;;;;5014130;28;20037;-84
2024/02/25 06:24:47;;;;;;;2.55;1.20;;;5.70;99.90;;;;;;5029865;28;20512;-82
2024/02/25 06:27:13;;;;;;;1.38;0.90;;;;;;;;;;4997688;28;20045;-81
2024/02/25 06:29:40;;;;;;;1.73;1.00;;;5.70;99.90;;;;;;5013731;28;20080;-81
2024/02/25 06:32:06;;;;;;;2.70;1.35;;;5.70;99.90;;;;;;5000051;28;20031;-82
2024/02/25 06:34:31;;;;;;;2.53;1.20;;;5.10;99.90;;;;;;5016360;28;20044;-83
2024/02/25 06:36:57;;;;;;;1.35;0.98;;;6.30;99.90;;;;;;5013995;28;20048;-83
2024/02/25 06:39:23;;;;;;;2.05;1.20;;;;;;;;;;4994971;28;20041;-84
2024/02/25 06:41:50;;;;;;;3.28;1.10;;;5.70;99.90;;;;;;5030600;28;20060;-86
2024/02/25 06:44:16;;;;;;;2.50;1.10;;;;;;;;;;5011867;28;20397;-82
2024/02/25 06:46:42;;;;;;;1.58;1.00;;;5.70;99.90;;;;;;5028981;28;20030;-83
2024/02/25 06:49:07;;;;;;;2.10;1.20;;;5.70;99.90;;;;;;5011608;28;20034;-82
2024/02/25 06:51:33;;;;;;;2.28;0.93;;;7.80;99.90;;;;;;4999776;28;20030;-83
2024/02/25 06:53:59;;;;;;;1.75;1.02;;;6.50;99.90;;;;;;5010100;28;20478;-84
2024/02/25 06:56:25;;;;;;;2.33;1.30;;;;;;;;;;5002377;28;20132;-83
2024/02/25 06:58:50;;;;;;;2.47;1.10;;;5.70;99.90;;;;;;5031517;28;20030;-80
2024/02/25 07:01:16;;;;;;;1.55;0.70;;;6.30;99.90;;;;;;5001936;28;20030;-84
2024/02/25 07:03:45;;;;;;;2.15;1.13;;;5.80;99.90;;;;;;5016629;28;20058;-83
2024/02/25 07:06:14;;;;;;;1.77;0.88;;;7.50;99.90;;;;;;4999009;28;20529;-83
2024/02/25 07:08:40;;;;;;;1.25;0.80;;;;;;;;;;5003415;28;20033;-84
2024/02/25 07:11:20;;;;;;;3.55;1.00;;;5.70;99.90;;;;;;5002660;28;20022;-85
2024/02/25 07:13:46;;;;;;;3.67;2.08;;;;;;;;;;5005106;28;20199;-81
2024/02/25 07:16:13;;;;;;;3.55;1.00;;;5.80;99.90;;;;;;5017484;28;20538;-84
2024/02/25 07:18:38;;;;;;;2.85;1.13;;;7.30;99.90;;;;;;5002040;28;20030;-84
2024/02/25 07:21:06;;;;;;;2.97;1.10;;;;;;;;;;5002698;28;20060;-83
2024/02/25 07:23:33;;;;;;;0.98;0.77;;;;;;;;;;4996794;28;20296;-84
2024/02/25 07:25:59;;;;;;;1.73;0.93;;;5.80;99.90;;;;;;5030149;28;20121;-84
2024/02/25 07:28:25;;;;;;;1.48;0.95;;;5.90;99.90;;;;;;5019742;28;20068;-84
2024/02/25 07:30:51;;;;;;;1.98;1.20;;;;;;;;;;5005439;28;20539;-82
2024/02/25 07:33:20;;;;;;;2.15;1.10;;;;;;;;;;5028448;28;20497;-83
2024/02/25 07:35:46;;;;;;;2.28;1.10;;;5.90;99.90;;;;;;5020591;28;20039;-85
2024/02/25 07:38:12;;;;;;;2.67;1.38;;;;;;;;;;4997991;28;20088;-80
2024/02/25 07:40:38;;;;;;;2.00;1.10;;;5.70;99.90;;;;;;5004015;28;20076;-84
2024/02/25 07:43:04;;;;;;;2.58;1.27;;;8.50;99.90;;;;;;4998547;28;20437;-85
2024/02/25 07:45:30;;;;;;;1.63;0.90;;;;;;;;;;5016158;28;20493;-81
2024/02/25 07:47:55;;;;;;;2.13;1.00;;;6.00;99.90;;;;;;5025491;28;20026;-83
2024/02/25 07:50:21;;;;;;;3.05;1.00;;;7.50;99.90;;;;;;4998964;28;20101;-83
2024/02/25 07:52:47;;;;;;;2.75;1.10;;;8.80;99.90;;;;;;4999169;28;20161;-83
2024/02/25 07:55:13;;;;;;;1.92;1.10;;;6.20;99.90;;;;;;4997147;28;20022;-86
2024/02/25 07:57:39;;;;;;;2.47;1.10;;;;;;;;;;4998352;28;20655;-85
2024/02/25 08:00:05;;;;;;;1.73;0.98;;;6.30;99.90;;;;;;5008367;28;20034;-82
2024/02/25 08:02:35;;;;;;;3.72;1.23;;;6.20;99.90;;;;;;4998078;28;20080;-86
2024/02/25 08:05:07;;;;;;;2.90;1.40;;;6.30;99.90;;;;;;5002322;28;20032;-84
2024/02/25 08:07:33;;;;;;;2.38;1.30;;;6.30;99.90;;;;;;4996361;28;20044;-84
2024/02/25 08:09:59;;;;;;;2.10;1.25;;;;;;;;;;5009507;28;20029;-82
2024/02/25 08:12:28;;;;;;;4.10;1.50;;;;;;;;;;4992512;28;20426;-81
2024/02/25 08:14:55;;;;;;;2.63;1.38;;;;;;;;;;5013588;28;20069;-80
2024/02/25 08:17:21;;;;;;;3.13;1.10;;;6.40;99.90;;;;;;5011675;28;20060;-84
2024/02/25 08:19:47;;;;;;;3.92;1.40;;;6.40;99.90;;;;;;5006698;28;20030;-83
2024/02/25 08:22:13;;;;;;;1.88;1.10;;;7.00;99.90;;;;;;4991478;28;20029;-81
2024/02/25 08:24:39;;;;;;;3.35;1.17;;;;;;;;;;5008218;28;20101;-84
2024/02/25 08:27:04;;;;;;;2.83;1.10;;;6.40;99.90;;;;;;5023662;28;20049;-86
2024/02/25 08:29:31;;;;;;;3.45;1.20;;;;;;;;;;5012456;28;21199;-85
2024/02/25 08:31:56;;;;;;;2.20;0.90;;;6.70;99.90;;;;;;5000100;28;20029;-79
2024/02/25 08:34:22;;;;;;;1.88;0.95;;;4.00;99.90;;;;;;4994410;28;20053;-81
2024/02/25 08:36:48;;;;;;;1.88;1.10;;;;;;;;;;4992714;28;20274;-82
2024/02/25 08:39:14;;;;;;;1.75;1.00;;;7.10;99.90;;;;;;5026544;28;20112;-86
2024/02/25 08:41:40;;;;;;;2.25;0.93;;;7.30;99.90;;;;;;4995730;28;20367;-86
2024/02/25 08:44:05;;;;;;;2.58;1.10;;;8.70;99.90;;;;;;4994605;28;20030;-83
2024/02/25 08:46:31;;;;;;;1.40;0.98;;;8.60;99.90;;;;;;4992465;28;20025;-84
2024/02/25 08:48:57;;;;;;;1.60;0.98;;;7.30;99.90;;;;;;4993799;28;20649;-85
2024/02/25 08:51:23;;;;;;;2.20;1.10;;;9.70;99.90;;;;;;5015453;28;20030;-86
2024/02/25 08:53:48;;;;;;;2.92;1.00;;;7.60;99.90;;;;;;5008652;28;20034;-87
2024/02/25 08:56:14;;;;;;;2.03;1.05;;;9.70;99.90;;;;;;5004628;28;20083;-82
2024/02/25 08:58:43;;;;;;;2.25;1.00;;;;;;;;;;5006691;28;20549;-84
2024/02/25 09:01:09;;;;;;;2.75;1.38;;;7.50;99.90;;;;;;4987469;28;20021;-81
2024/02/25 09:03:35;;;;;;;2.75;1.10;;;7.40;99.90;;;;;;4992932;28;20032;-85
2024/02/25 09:06:00;;;;;;;2.40;1.08;;;7.40;99.90;;;;;;4994570;28;20026;-83
2024/02/25 09:08:26;;;;;;;3.15;1.10;;;;;;;;;;4994317;28;20482;-81
2024/02/25 09:10:52;;;;;;;2.25;1.00;;;7.70;99.90;;;;;;5007975;28;20037;-82
2024/02/25 09:13:18;;;;;;;4.60;1.52;;;;;;;;;;5007609;28;20061;-82
2024/02/25 09:15:44;;;;;;;1.88;0.93;;;8.10;99.90;;;;;;5024786;28;20257;-82
2024/02/25 09:18:10;;;;;;;1.55;0.80;;;;;;;;;;4987049;28;20033;-80
2024/02/25 09:20:36;;;;;;;1.33;0.90;;;7.90;99.90;;;;;;5021919;28;20049;-80
2024/02/25 09:23:04;;;;;;;2.63;0.88;;;8.00;99.90;;;;;;5010594;28;20030;-80
2024/02/25 09:25:33;;;;;;;4.13;1.08;;;7.90;99.90;;;;;;5005896;28;20049;-85
2024/02/25 09:28:03;;;;;;;1.70;0.70;;;7.90;99.90;;;;;;5011247;28;20028;-84
2024/02/25 09:30:32;;;;;;;2.45;1.20;;;7.80;99.90;;;;;;5007999;28;20036;-83
2024/02/25 09:33:02;;;;;;;2.42;1.35;;;8.30;99.90;;;;;;5009758;28;20049;-83
2024/02/25 09:35:28;;;;;;;2.15;1.00;;;;;;;;;;4992420;28;20410;-84
2024/02/25 09:37:54;;;;;;;2.83;1.00;;;;;;;;;;5021093;28;20022;-86
2024/02/25 09:40:41;;;;;;;3.72;1.00;;;;;;;;;;5027663;28;20553;-85
2024/02/25 09:43:23;;;;;;;1.08;0.77;;;8.30;99.90;;;;;;5005257;28;20031;-82
2024/02/25 09:45:53;;;;;;;1.95;0.90;;;8.20;99.90;;;;;;4992876;28;20032;-85
2024/02/25 09:48:24;;;;;;;5.20;1.13;;;8.20;99.90;;;;;;5005346;28;20038;-86
2024/02/25 09:50:51;;;;;;;1.23;0.75;;;8.10;99.90;;;;;;5021568;28;20045;-85
2024/02/25 09:53:21;;;;;;;1.90;0.90;;;8.80;99.90;;;;;;5005945;28;20029;-84
2024/02/25 09:55:49;;;;;;;3.50;1.00;;;8.40;99.90;;;;;;4991059;28;20092;-86
2024/02/25 09:58:16;;;;;;;2.53;1.10;;;8.30;99.90;;;;;;5008959;28;20041;-86
2024/02/25 10:00:42;;;;;;;1.63;1.00;;;;;;;;;;4989918;28;20022;-81
2024/02/25 10:03:11;;;;;;;2.55;0.80;;;8.70;99.90;;;;;;5000769;28;20492;-80
2024/02/25 10:05:39;;;;;;;2.33;0.90;;;8.70;99.90;;;;;;5003502;28;20025;-83
2024/02/25 10:08:10;;;;;;;2.15;0.88;;;8.70;99.90;;;;;;4998900;28;20026;-86
2024/02/25 10:10:41;;;;;;;1.77;0.70;;;8.70;99.90;;;;;;4992816;28;20014;-84
2024/02/25 10:13:08;;;;;;;2.20;0.80;;;10.20;99.90;;;;;;4993622;28;20116;-83
2024/02/25 10:15:39;;;;;;;2.75;0.70;;;8.80;99.90;;;;;;5005280;28;20022;-83
2024/02/25 10:18:05;;;;;;;2.28;0.82;;;9.80;99.90;;;;;;5010921;28;20164;-84
2024/02/25 10:20:43;;;;;;;1.65;0.80;;;8.80;99.90;;;;;;4988673;28;20045;-84
2024/02/25 10:23:11;;;;;;;2.42;1.00;;;8.90;99.90;;;;;;5009489;28;20019;-83
2024/02/25 10:25:43;;;;;;;1.52;0.65;;;8.90;99.90;;;;;;5005684;28;20579;-84
2024/02/25 10:28:18;;;;;;;2.17;0.80;;;9.10;99.90;;;;;;4998894;28;20160;-84
2024/02/25 10:31:00;;;;;;;3.03;0.82;;;9.20;99.90;;;;;;5013001;28;20033;-84
2024/02/25 10:33:26;;;;;;;2.17;0.90;;;9.50;99.90;;;;;;5013364;28;20052;-85
2024/02/25 10:36:07;;;;;;;2.08;0.77;;;9.20;99.90;;;;;;4993328;28;20049;-82
2024/02/25 10:38:45;;;;;;;3.58;0.85;;;9.10;99.90;;;;;;4999871;28;20030;-84
2024/02/25 10:41:11;;;;;;;2.92;0.75;;;9.10;99.90;;;;;;4994817;28;20026;-86
2024/02/25 10:43:38;;;;;;;2.75;0.80;;;11.40;99.90;;;;;;5011315;28;20048;-82
2024/02/25 10:46:12;;;;;;;1.73;0.88;;;9.30;99.90;;;;;;4993684;28;20498;-82
2024/02/25 10:48:39;;;;;;;1.27;0.68;;;9.80;99.90;;;;;;4982571;28;20034;-85
2024/02/25 10:51:12;;;;;;;1.58;0.82;;;10.60;99.90;;;;;;5020560;28;20026;-84
2024/02/25 10:53:41;;;;;;;2.10;0.80;;;9.90;99.90;;;;;;5010119;28;20042;-83
2024/02/25 10:56:24;;;;;;;;;;;;;;;;;;;;;
2024/02/25 10:58:55;;;;;;;2.90;0.80;;;9.20;99.90;;;;;;5003641;28;20470;-85
2024/02/25 11:01:44;;;;;;;3.58;1.13;;;9.40;99.90;;;;;;4993606;28;20530;-81
2024/02/25 11:04:13;;;;;;;6.53;0.73;;;9.40;99.90;;;;;;5007410;28;20037;-85
2024/02/25 11:06:42;;;;;;;1.73;0.73;;;9.80;99.90;;;;;;4992317;28;20030;-81
2024/02/25 11:09:12;;;;;;;2.40;0.70;;;9.50;99.90;;;;;;5008925;28;20035;-83
2024/02/25 11:12:03;;;;;;;3.90;0.90;;;9.60;99.90;;;;;;4991413;28;20037;-83
2024/02/25 11:14:35;;;;;;;;;;;9.60;99.90;;;;;;4995840;28;20030;-84
2024/02/25 11:17:01;;;;;;;1.92;0.90;;;;;;;;;;5010072;28;19992;-82
2024/02/25 11:19:29;;;;;;;3.13;0.80;;;;;;;;;;5009204;28;20045;-85
2024/02/25 11:22:00;;;;;;;2.05;1.00;;;9.90;99.90;;;;;;4995352;28;20025;-81
2024/02/25 11:24:53;;;;;;;2.85;1.00;;;10.40;99.90;;;;;;5004475;28;20084;-83
2024/02/25 11:27:19;;;;;;;3.38;0.82;;;9.90;99.90;;;;;;5007093;28;20030;-82
2024/02/25 11:30:20;;;;;;;1.90;0.65;;;10.10;99.90;;;;;;5008330;28;20037;-83
2024/02/25 11:32:49;;;;;;;3.40;0.85;;;10.10;99.90;;;;;;5007750;28;20465;-85
2024/02/25 11:35:22;;;;;;;7.50;2.45;;;10.00;99.90;;;;;;4994235;28;24111;-83
2024/02/25 11:37:49;;;;;;;3.25;0.90;;;10.30;99.90;;;;;;4992313;28;20101;-84
2024/02/25 11:40:21;;;;;;;0.95;0.60;;;10.40;99.90;;;;;;5007696;28;20728;-82
2024/02/25 11:42:47;;;;;;;0.98;0.63;;;;;;;;;;4997562;28;20109;-84
2024/02/25 11:45:13;;;;;;;1.83;0.73;;;10.40;99.90;;;;;;5026695;28;20494;-82
2024/02/25 11:47:39;;;;;;;1.70;0.90;;;;;;;;;;5010257;28;20088;-80
2024/02/25 11:50:07;;;;;;;2.40;1.00;;;10.80;99.90;;;;;;5003412;28;20029;-80
2024/02/25 11:52:33;;;;;;;2.75;0.80;;;10.90;99.90;;;;;;5011247;28;20033;-82
2024/02/25 11:55:02;;;;;;;1.60;0.77;;;11.00;99.90;;;;;;4991856;28;20056;-85
2024/02/25 11:57:29;;;;;;;2.63;0.90;;;11.00;99.90;;;;;;4999284;28;20036;-84
2024/02/25 11:59:55;;;;;;;2.95;0.82;;;10.90;99.90;;;;;;5005304;28;20038;-86
2024/02/25 12:02:20;;;;;;;2.58;1.20;;;10.90;99.90;;;;;;5006610;28;23069;-86
2024/02/25 12:04:46;;;;;;;1.40;0.68;;;10.90;99.90;;;;;;5005360;28;20038;-83
2024/02/25 12:07:13;;;;;;;1.05;0.63;;;10.80;99.90;;;;;;4999880;28;20034;-85
2024/02/25 12:09:40;;;;;;;2.17;0.70;;;10.80;99.90;;;;;;5004890;28;20038;-84
2024/02/25 12:12:06;;;;;;;2.95;0.80;;;;;;;;;;5004875;28;20048;-86
2024/02/25 12:14:38;;;;;;;2.28;0.77;;;10.80;99.90;;;;;;5020905;28;20056;-85
2024/02/25 12:17:04;;;;;;;3.08;1.10;;;10.80;99.90;;;;;;4985654;28;20033;-86
2024/02/25 12:19:30;;;;;;;3.17;1.02;;;;;;;;;;5003343;28;20685;-85
2024/02/25 12:22:07;;;;;;;2.80;1.00;;;;;;;;;;5044383;28;20033;-85
2024/02/25 12:24:43;;;;;;;;;;;;;;;;;;;;;
2024/02/25 12:27:09;;;;;;;1.80;0.80;;;;;;;;;;5019125;28;20090;-85
2024/02/25 12:29:56;;;;;;;1.85;0.68;;;10.70;99.90;;;;;;4998842;28;20064;-84
2024/02/25 12:32:25;;;;;;;3.00;0.80;;;;;;;;;;5018947;28;20030;-85
2024/02/25 12:34:57;;;;;;;2.80;0.88;;;10.60;99.90;;;;;;5001969;28;20685;-82
2024/02/25 12:38:22;;;;;;;;;;;;;;;;;;;;;
2024/02/25 12:40:51;;;;;;;1.63;1.10;;;10.50;99.90;;;;;;5014326;28;20137;-85
2024/02/25 12:43:18;;;;;;;1.75;0.73;;;;;;;;;;5017051;28;20034;-84
2024/02/25 12:45:47;;;;;;;3.33;0.70;;;;;;;;;;5033016;28;20061;-86
2024/02/25 12:48:13;;;;;;;1.85;1.00;;;;;;;;;;5031577;28;20022;-85
2024/02/25 12:50:39;;;;;;;2.55;0.70;;;;;;;;;;5008119;28;20124;-87
2024/02/25 12:53:07;;;;;;;1.83;0.75;;;10.50;99.90;;;;;;5036866;28;20022;-85
2024/02/25 12:55:34;;;;;;;2.08;0.63;;;11.20;99.90;;;;;;5000900;28;20072;-86
2024/02/25 12:58:04;;;;;;;1.35;0.80;;;10.90;99.90;;;;;;5005666;28;20313;-85
2024/02/25 13:00:34;;;;;;;2.38;0.95;;;10.80;99.90;;;;;;5003261;28;20022;-86
2024/02/25 13:03:00;;;;;;;1.85;1.08;;;;;;;;;;5015472;23;20025;-87
2024/02/25 13:05:26;;;;;;;2.33;0.70;;;;;;;;;;5012558;28;20034;-89
2024/02/25 13:07:51;;;;;;;1.45;0.70;;;10.70;99.90;;;;;;5011693;28;20010;-86
2024/02/25 13:10:17;;;;;;;0.55;0.50;;;;;;;;;;5031076;28;20045;-86
2024/02/25 13:12:47;;;;;;;3.13;1.20;;;10.90;99.90;;;;;;5002282;28;20014;-86
2024/02/25 13:15:13;;;;;;;3.10;1.15;;;;;;;;;;4990815;28;20078;-86
2024/02/25 13:17:39;;;;;;;1.30;0.68;;;11.10;99.90;;;;;;4977589;28;20078;-87